createdAt,value
2022-11-25T00:03:49.912Z,100364.22
2022-11-25T00:08:59.982Z,100370.25
2022-11-25T00:14:02.353Z,100358.16
2022-11-25T00:19:04.182Z,100357.44
2022-11-25T00:24:07.526Z,100347.94
2022-11-25T00:29:13.202Z,100346.44
2022-11-25T00:34:15.646Z,100339.53
2022-11-25T00:39:18.783Z,100324.75
2022-11-25T00:44:37.754Z,100332.19
2022-11-25T00:49:42.957Z,100322.28
2022-11-25T00:54:45.130Z,100331.47
2022-11-25T00:59:47.433Z,100322.91
2022-11-25T01:04:49.204Z,100325.00
2022-11-25T01:09:51.374Z,100322.72
2022-11-25T01:14:53.081Z,100322.59
2022-11-25T01:19:55.030Z,100316.75
2022-11-25T01:24:56.890Z,100336.75
2022-11-25T01:29:58.836Z,100343.50
2022-11-25T01:35:00.702Z,100342.16
2022-11-25T01:40:02.580Z,100346.22
2022-11-25T01:45:24.619Z,100366.94
2022-11-25T01:50:32.344Z,100380.91
2022-11-25T01:55:36.901Z,100374.81
2022-11-25T02:00:39.368Z,100372.47
2022-11-25T02:05:52.976Z,100385.56
2022-11-25T02:10:55.859Z,100387.84
2022-11-25T02:15:57.833Z,100385.50
2022-11-25T02:20:59.862Z,100385.44
2022-11-25T02:26:02.378Z,100391.81
2022-11-25T02:31:04.673Z,100395.50
2022-11-25T02:36:13.086Z,100399.84
2022-11-25T02:41:21.018Z,100408.34
2022-11-25T02:46:25.247Z,100413.19
2022-11-25T02:51:30.127Z,100427.53
2022-11-25T02:56:34.606Z,100415.75
2022-11-25T03:01:38.541Z,100430.78
2022-11-25T03:06:40.887Z,100425.78
2022-11-25T03:12:01.539Z,100433.38
2022-11-25T03:17:03.500Z,100434.41
2022-11-25T03:22:05.627Z,100449.03
2022-11-25T03:27:07.625Z,100460.44
2022-11-25T03:32:10.011Z,100466.34
2022-11-25T03:37:12.149Z,100457.53
2022-11-25T03:42:14.431Z,100461.88
2022-11-25T03:47:16.549Z,100445.75
2022-11-25T03:52:18.995Z,100448.09
2022-11-25T03:57:20.879Z,100457.00
2022-11-25T04:02:23.386Z,100465.88
2022-11-25T04:07:25.407Z,100460.75
2022-11-25T04:12:45.784Z,100463.09
2022-11-25T04:17:47.778Z,100475.06
2022-11-25T04:22:49.757Z,100479.84
2022-11-25T04:27:52.139Z,100495.78
2022-11-25T04:32:54.156Z,100503.00
2022-11-25T04:37:56.242Z,100509.19
2022-11-25T04:43:03.473Z,100512.75
2022-11-25T04:48:08.173Z,100518.91
2022-11-25T04:53:10.206Z,100521.25
2022-11-25T04:58:12.339Z,100529.81
2022-11-25T05:03:14.532Z,100527.59
2022-11-25T05:08:16.358Z,100533.31
2022-11-25T05:13:18.257Z,100538.97
2022-11-25T05:18:20.226Z,100540.44
2022-11-25T05:23:22.118Z,100544.63
2022-11-25T05:28:24.036Z,100550.81
2022-11-25T05:33:26.236Z,100545.34
2022-11-25T05:38:28.668Z,100549.00
2022-11-25T05:43:30.700Z,100553.47
2022-11-25T05:48:32.628Z,100553.25
2022-11-25T05:53:34.539Z,100564.75
2022-11-25T05:58:36.301Z,100572.31
2022-11-25T06:03:38.897Z,100573.66
2022-11-25T06:08:41.041Z,100575.25
2022-11-25T06:13:44.963Z,100577.22
2022-11-25T06:18:47.085Z,100577.53
2022-11-25T06:23:49.089Z,100592.06
2022-11-25T06:28:54.166Z,100602.16
2022-11-25T06:33:56.106Z,100589.22
2022-11-25T06:38:58.031Z,100595.94
2022-11-25T06:43:59.844Z,100596.94
2022-11-25T06:49:02.026Z,100607.06
2022-11-25T06:54:04.332Z,100617.16
2022-11-25T06:59:07.152Z,100629.19
2022-11-25T07:04:09.335Z,100626.81
2022-11-25T07:09:11.254Z,100636.78
2022-11-25T07:14:15.543Z,100645.25
2022-11-25T07:19:19.028Z,100649.31
2022-11-25T07:24:21.003Z,100667.38
2022-11-25T07:29:50.413Z,100672.41
2022-11-25T07:34:45.285Z,100693.38
2022-11-25T07:39:47.514Z,100695.63
2022-11-25T07:44:49.873Z,100704.63
2022-11-25T07:49:51.956Z,100721.63
2022-11-25T07:54:54.049Z,100718.59
2022-11-25T07:59:55.892Z,100730.25
2022-11-25T08:04:57.776Z,100741.94
2022-11-25T08:09:59.853Z,100744.44
2022-11-25T08:15:01.806Z,100764.91
2022-11-25T08:20:04.067Z,100762.44
2022-11-25T08:25:06.438Z,100771.44
2022-11-25T08:30:09.250Z,100778.47
2022-11-25T08:35:11.266Z,100781.25
2022-11-25T08:40:14.112Z,100797.78
2022-11-25T08:45:16.518Z,100798.53
2022-11-25T08:50:19.003Z,100804.00
2022-11-25T08:55:22.216Z,100819.16
2022-11-25T09:00:24.440Z,100817.25
2022-11-25T09:05:26.560Z,100824.50
2022-11-25T09:10:28.913Z,100821.69
2022-11-25T09:15:31.817Z,100823.53
2022-11-25T09:20:34.466Z,100827.97
2022-11-25T09:25:37.511Z,100843.84
2022-11-25T09:30:39.516Z,100844.72
2022-11-25T09:35:41.480Z,100850.91
2022-11-25T09:40:58.272Z,100853.63
2022-11-25T09:46:43.723Z,100866.81
2022-11-25T09:52:02.851Z,100872.41
2022-11-25T09:57:20.744Z,100877.53
2022-11-25T10:03:07.062Z,100889.16
2022-11-25T10:08:21.096Z,100891.75
2022-11-25T10:13:35.148Z,100899.50
2022-11-25T10:18:45.834Z,100900.69
2022-11-25T10:23:47.908Z,100906.78
2022-11-25T10:28:57.275Z,100914.72
2022-11-25T10:34:01.235Z,100929.63
2022-11-25T10:39:24.589Z,100933.31
2022-11-25T10:44:38.157Z,100939.41
2022-11-25T10:50:19.264Z,100939.41
2022-11-25T10:55:27.204Z,100950.84
2022-11-25T11:00:37.828Z,100959.03
2022-11-25T11:05:49.380Z,100965.06
2022-11-25T11:11:21.005Z,100973.97
2022-11-25T11:16:37.043Z,100973.06
2022-11-25T11:21:42.015Z,100972.13
2022-11-25T11:26:43.994Z,100988.84
2022-11-25T11:31:51.605Z,100990.78
2022-11-25T11:36:59.857Z,100984.38
2022-11-25T11:42:12.802Z,101003.97
2022-11-25T11:47:17.909Z,101001.16
2022-11-25T11:52:55.621Z,101012.94
2022-11-25T11:58:31.759Z,101014.69
2022-11-25T12:04:04.446Z,101015.50
2022-11-25T12:09:15.913Z,101024.31
2022-11-25T12:14:46.050Z,101027.03
2022-11-25T12:20:14.365Z,101045.66
2022-11-25T12:25:23.736Z,101046.47
2022-11-25T12:30:36.512Z,101038.56
2022-11-25T12:35:47.084Z,101046.50
2022-11-25T12:41:01.804Z,101044.56
2022-11-25T12:46:29.891Z,101047.53
2022-11-25T12:52:25.722Z,101057.91
2022-11-25T12:57:59.843Z,101068.50
2022-11-25T13:03:34.463Z,101082.72
2022-11-25T13:09:06.039Z,101087.25
2022-11-25T13:14:20.416Z,101087.03
2022-11-25T13:19:22.601Z,101094.38
2022-11-25T13:24:31.712Z,101102.06
2022-11-25T13:29:39.928Z,101113.22
2022-11-25T13:34:41.947Z,101120.13
2022-11-25T13:39:46.522Z,101125.44
2022-11-25T13:44:56.866Z,101129.72
2022-11-25T13:50:08.365Z,101142.88
2022-11-25T13:55:16.347Z,101141.91
2022-11-25T14:00:18.082Z,101139.28
2022-11-25T14:05:44.694Z,101149.75
2022-11-25T14:11:16.118Z,101147.16
2022-11-25T14:16:39.382Z,101154.31
2022-11-25T14:21:47.347Z,101159.56
2022-11-25T14:26:52.320Z,101157.31
2022-11-25T14:31:58.810Z,101172.69
2022-11-25T14:37:29.239Z,101174.59
2022-11-25T14:42:39.662Z,101183.28
2022-11-25T14:47:41.376Z,101190.09
2022-11-25T14:52:44.335Z,101204.22
2022-11-25T14:57:46.940Z,101214.84
2022-11-25T15:03:03.448Z,101233.50
2022-11-25T15:08:08.707Z,101248.41
2022-11-25T15:13:22.784Z,101263.69
2022-11-25T15:18:25.639Z,101268.59
2022-11-25T15:23:34.921Z,101274.13
2022-11-25T15:28:38.056Z,101283.91
2022-11-25T15:33:41.217Z,101295.28
2022-11-25T15:38:46.345Z,101293.47
2022-11-25T15:43:52.286Z,101304.09
2022-11-25T15:48:58.936Z,101317.47
2022-11-25T15:54:06.004Z,101324.28
2022-11-25T15:59:47.988Z,101333.53
2022-11-25T16:04:49.777Z,101343.19
2022-11-25T16:09:51.951Z,101346.88
2022-11-25T16:14:53.618Z,101339.69
2022-11-25T16:19:55.379Z,101353.50
2022-11-25T16:25:02.103Z,101361.19
2022-11-25T16:30:04.451Z,101366.31
2022-11-25T16:35:15.364Z,101391.00
2022-11-25T16:40:19.022Z,101395.81
2022-11-25T16:45:23.398Z,101394.03
2022-11-25T16:50:25.369Z,101404.59
2022-11-25T16:55:27.244Z,101414.41
2022-11-25T17:00:29.309Z,101423.72
2022-11-25T17:05:31.111Z,101434.22
2022-11-25T17:10:33.071Z,101454.03
2022-11-25T17:15:38.211Z,101470.75
2022-11-25T17:20:40.343Z,101476.94
2022-11-25T17:25:46.886Z,101490.19
2022-11-25T17:30:48.953Z,101490.84
2022-11-25T17:35:50.759Z,101502.03
2022-11-25T17:40:52.986Z,101511.97
2022-11-25T17:45:54.970Z,101518.97
2022-11-25T17:50:56.813Z,101526.03
2022-11-25T17:56:01.927Z,101537.88
2022-11-25T18:01:04.022Z,101544.00
2022-11-25T18:06:06.805Z,101555.53
2022-11-25T18:11:08.628Z,101570.19
2022-11-25T18:16:11.443Z,101575.34
2022-11-25T18:21:14.531Z,101590.69
2022-11-25T18:26:16.416Z,101599.19
2022-11-25T18:31:18.450Z,101586.38
2022-11-25T18:36:20.264Z,101600.50
2022-11-25T18:41:22.288Z,101601.00
2022-11-25T18:46:24.261Z,101607.25
2022-11-25T18:51:26.233Z,101610.28
2022-11-25T18:56:28.249Z,101611.91
2022-11-25T19:01:30.515Z,101626.97
2022-11-25T19:06:32.667Z,101636.91
2022-11-25T19:11:38.071Z,101653.06
2022-11-25T19:16:41.485Z,101665.22
2022-11-25T19:21:43.649Z,101661.25
2022-11-25T19:26:51.555Z,101667.91
2022-11-25T19:31:54.722Z,101679.19
2022-11-25T19:36:56.549Z,101685.50
2022-11-25T19:41:58.263Z,101690.50
2022-11-25T19:47:14.967Z,101693.78
2022-11-25T19:52:20.705Z,101715.41
2022-11-25T19:57:24.341Z,101721.50
2022-11-25T20:02:26.992Z,101717.00
2022-11-25T20:07:31.266Z,101724.34
2022-11-25T20:12:33.254Z,101732.94
2022-11-25T20:17:37.819Z,101733.97
2022-11-25T20:23:12.771Z,101736.63
2022-11-25T20:28:19.622Z,101752.44
2022-11-25T20:33:24.732Z,101746.69
2022-11-25T20:38:30.220Z,101760.63
2022-11-25T20:43:37.038Z,101763.91
2022-11-25T20:48:39.166Z,101780.06
2022-11-25T20:53:45.208Z,101780.66
2022-11-25T20:58:47.605Z,101787.78
2022-11-25T21:03:49.986Z,101796.78
2022-11-25T21:08:53.187Z,101796.59
2022-11-25T21:13:55.500Z,101804.41
2022-11-25T21:18:57.342Z,101813.56
2022-11-25T21:24:25.849Z,101821.41
2022-11-25T21:29:28.583Z,101830.66
2022-11-25T21:34:30.426Z,101830.56
2022-11-25T21:39:34.094Z,101846.19
2022-11-25T21:44:40.897Z,101845.13
2022-11-25T21:49:42.917Z,101854.25
2022-11-25T21:54:45.503Z,101863.03
2022-11-25T21:59:47.762Z,101873.88
2022-11-25T22:04:50.681Z,101870.16
2022-11-25T22:09:52.553Z,101874.47
2022-11-25T22:14:55.176Z,101890.63
2022-11-25T22:19:57.588Z,101884.16
2022-11-25T22:24:59.457Z,101897.44
2022-11-25T22:30:01.220Z,101901.38
2022-11-25T22:35:03.204Z,101907.06
2022-11-25T22:40:05.577Z,101912.56
2022-11-25T22:45:13.998Z,101913.31
2022-11-25T22:50:18.497Z,101925.69
2022-11-25T22:55:27.794Z,101928.72
2022-11-25T23:00:36.045Z,101938.50
2022-11-25T23:05:39.881Z,101945.72
2022-11-25T23:10:42.615Z,101942.78
2022-11-25T23:15:55.597Z,101956.28
2022-11-25T23:20:57.846Z,101961.78
2022-11-25T23:25:59.784Z,101963.41
2022-11-25T23:31:02.720Z,101966.03
2022-11-25T23:36:27.356Z,101978.19
2022-11-25T23:41:32.225Z,101982.84
2022-11-25T23:46:34.959Z,101988.94
2022-11-25T23:51:37.402Z,101995.09
2022-11-25T23:56:39.297Z,101992.44
